Time;durP1;ratioP1;P1;durP2;ratioP2;P2;SDS_P1;SDS_P2;PMS_P1;PMS_P2;Temp;Humidity;BMP_temperature;BMP_pressure;BME280_temperature;BME280_humidity;BME280_pressure;Samples;Min_cycle;Max_cycle;Signal;HPM_P1;HPM_P2
2023/10/11 00:05:19;;;;;;;11.55;5.18;;;;;;;12.64;96.96;100811.19;4751046;30;20439;-71
2023/10/11 00:08:59;;;;;;;9.27;5.40;;;;;;;12.56;97.24;100810.75;4788182;29;20545;-71
2023/10/11 00:12:52;;;;;;;7.80;5.05;;;;;;;12.54;97.08;100815.25;4803725;29;20145;-71
2023/10/11 00:16:52;;;;;;;11.65;5.20;;;;;;;12.50;96.88;100821.59;4804549;29;20168;-71
2023/10/11 00:21:09;;;;;;;8.68;4.75;;;;;;;12.47;96.90;100808.63;4804259;29;20054;-71
2023/10/11 00:26:01;;;;;;;12.60;4.95;;;;;;;12.44;96.45;100806.19;4804586;29;20363;-71
2023/10/11 00:39:16;;;;;;;10.23;5.07;;;;;;;12.32;96.97;100803.31;4879539;29;20097;-71
2023/10/11 00:58:04;;;;;;;9.55;4.38;;;;;;;12.08;96.17;100789.75;4879141;29;20140;-70
2023/10/11 01:01:11;;;;;;;12.52;4.97;;;;;;;12.02;96.37;100782.22;4879255;29;20455;-70
2023/10/11 01:09:50;;;;;;;12.27;4.53;;;;;;;11.95;96.18;100786.13;4878863;29;20080;-70
2023/10/11 01:12:57;;;;;;;11.93;5.15;;;;;;;11.97;96.01;100793.91;4858674;29;20081;-71
2023/10/11 01:16:14;;;;;;;7.25;5.25;;;;;;;11.92;96.26;100782.81;4848761;29;20582;-71
2023/10/11 01:19:40;;;;;;;12.93;5.03;;;;;;;11.90;96.18;100789.91;4850757;29;20093;-70
2023/10/11 01:22:44;;;;;;;9.98;4.75;;;;;;;11.87;96.19;100785.72;4860353;29;20124;-71
2023/10/11 01:31:38;;;;;;;13.77;5.43;;;;;;;11.89;95.77;100785.59;4846491;29;20110;-71
2023/10/11 01:36:10;;;;;;;11.38;5.22;;;;;;;11.88;95.80;100781.31;4843082;29;20422;-71
2023/10/11 01:39:13;;;;;;;14.27;7.10;;;;;;;11.77;96.10;100772.22;4828450;29;20104;-70
2023/10/11 01:42:17;;;;;;;;;;;;;;;11.77;95.65;100777.47;4860305;29;20122;-70
2023/10/11 01:45:23;;;;;;;10.23;4.60;;;;;;;11.83;95.37;100769.25;4860210;29;19988;-70
2023/10/11 01:48:27;;;;;;;12.32;5.38;;;;;;;11.79;94.93;100770.34;4859855;29;20128;-70
2023/10/11 01:51:30;;;;;;;11.45;4.85;;;;;;;11.74;95.39;100767.13;4859081;29;20048;-70
2023/10/11 01:54:34;;;;;;;12.82;5.88;;;;;;;11.74;95.29;100772.38;4859146;29;20168;-70
2023/10/11 01:57:39;;;;;;;10.93;4.50;;;;;;;11.75;94.98;100763.59;4859787;29;20410;-70
2023/10/11 02:00:43;;;;;;;16.65;4.90;;;;;;;11.73;94.84;100752.31;4862884;29;20088;-70
2023/10/11 02:03:54;;;;;;;12.13;5.50;;;;;;;11.68;94.70;100759.59;4851977;29;20493;-70
2023/10/11 02:06:57;;;;;;;16.83;5.05;;;;;;;11.58;94.88;100758.38;4863404;29;20117;-70
2023/10/11 02:10:00;;;;;;;;;;;;;;;11.56;95.12;100752.41;4863706;29;20525;-70
2023/10/11 02:13:09;;;;;;;11.68;5.32;;;;;;;11.46;95.64;100761.66;4863290;29;20365;-70
2023/10/11 02:16:14;;;;;;;9.90;4.93;;;;;;;11.57;94.87;100756.69;4851785;29;20076;-70
2023/10/11 02:19:18;;;;;;;12.82;5.53;;;;;;;11.56;94.45;100750.63;4863220;29;20430;-70
2023/10/11 02:22:25;;;;;;;12.25;4.80;;;;;;;11.51;94.90;100751.78;4863221;29;20068;-70
2023/10/11 02:25:28;;;;;;;13.23;4.72;;;;;;;11.48;94.45;100752.78;4863198;29;20041;-70
2023/10/11 02:28:32;;;;;;;11.18;6.10;;;;;;;11.45;94.90;100746.84;4862255;29;20414;-70
2023/10/11 02:31:36;;;;;;;13.65;5.65;;;;;;;11.37;95.64;100755.97;4862918;29;20044;-70
2023/10/11 02:34:41;;;;;;;14.18;6.55;;;;;;;11.38;95.76;100752.41;4863158;29;20052;-70
2023/10/11 02:37:48;;;;;;;9.57;5.18;;;;;;;11.42;95.08;100745.25;4862898;29;20172;-70
2023/10/11 02:40:57;;;;;;;15.23;5.78;;;;;;;11.40;94.87;100750.56;4862900;29;20040;-71
2023/10/11 02:44:02;;;;;;;11.95;5.10;;;;;;;11.41;95.39;100752.25;4851417;29;20055;-70
2023/10/11 02:47:09;;;;;;;11.52;5.63;;;;;;;11.23;96.96;100761.09;4862714;29;20064;-70
2023/10/11 02:50:12;;;;;;;9.77;5.88;;;;;;;11.32;96.53;100755.34;4862732;29;20048;-70
2023/10/11 02:53:21;;;;;;;11.00;5.53;;;;;;;11.44;95.21;100737.31;4862611;29;20268;-70
2023/10/11 02:56:24;;;;;;;8.32;5.03;;;;;;;11.39;95.30;100754.13;4862578;29;20129;-70
2023/10/11 02:59:28;;;;;;;11.50;5.00;;;;;;;11.36;94.85;100746.44;4862601;29;20510;-70
2023/10/11 03:02:32;;;;;;;9.25;5.20;;;;;;;11.28;95.18;100743.34;4862461;29;20061;-70
2023/10/11 03:05:37;;;;;;;8.77;5.50;;;;;;;11.18;96.06;100739.53;4850902;29;20534;-70
2023/10/11 03:08:43;;;;;;;13.32;5.45;;;;;;;11.25;95.97;100738.28;4851183;29;20718;-70
2023/10/11 03:11:46;;;;;;;12.13;5.22;;;;;;;11.19;95.76;100733.34;4861644;29;20061;-71
2023/10/11 03:14:54;;;;;;;;;;;;;;;11.21;95.70;100738.53;4861585;29;20558;-71
2023/10/11 03:17:58;;;;;;;16.10;6.18;;;;;;;11.18;95.77;100729.06;4862081;29;19927;-70
2023/10/11 03:21:20;;;;;;;11.32;5.80;;;;;;;11.12;95.72;100731.97;4862399;29;20045;-70
2023/10/11 03:24:25;;;;;;;;;;;;;;;11.11;95.59;100730.28;4862732;29;20055;-70
2023/10/11 03:27:36;;;;;;;;;;;;;;;11.15;95.16;100727.44;4862456;29;19923;-71
2023/10/11 03:30:39;;;;;;;12.35;5.20;;;;;;;11.08;95.67;100728.69;4861929;29;19922;-71
2023/10/11 03:33:43;;;;;;;8.68;5.00;;;;;;;11.03;95.24;100720.19;4861919;29;20048;-70
2023/10/11 03:36:50;;;;;;;12.32;5.30;;;;;;;10.99;95.81;100717.84;4861824;29;20479;-72
2023/10/11 03:39:56;;;;;;;10.98;5.10;;;;;;;11.02;95.90;100726.38;4862201;29;20105;-73
2023/10/11 03:43:03;;;;;;;9.55;5.90;;;;;;;10.92;95.68;100715.53;4861659;29;20101;-70
2023/10/11 03:46:10;;;;;;;8.82;4.68;;;;;;;10.96;95.99;100718.84;4861750;29;20056;-72
2023/10/11 03:52:24;;;;;;;8.23;4.45;;;;;;;10.97;94.96;100711.81;4861448;29;20136;-71
2023/10/11 03:55:31;;;;;;;11.18;4.20;;;;;;;10.90;95.10;100700.81;4861634;29;20510;-70
2023/10/11 03:58:37;;;;;;;11.18;4.28;;;;;;;10.81;95.51;100699.50;4861401;29;20517;-71
2023/10/11 04:01:43;;;;;;;9.02;4.60;;;;;;;10.84;95.60;100707.22;4861411;29;20111;-72
2023/10/11 04:04:49;;;;;;;7.05;4.68;;;;;;;10.80;95.77;100700.44;4861311;29;20105;-71
2023/10/11 04:07:55;;;;;;;9.52;4.93;;;;;;;10.83;95.74;100700.28;4861209;29;20041;-71
2023/10/11 04:10:58;;;;;;;10.20;6.57;;;;;;;10.87;95.36;100706.22;4859535;29;20504;-69
2023/10/11 04:14:02;;;;;;;11.02;5.38;;;;;;;10.89;94.85;100707.00;4861022;29;20059;-71
2023/10/11 04:20:33;;;;;;;10.43;4.75;;;;;;;10.84;95.23;100707.22;4860612;29;20061;-71
2023/10/11 04:23:39;;;;;;;9.27;5.28;;;;;;;10.76;95.40;100714.59;4860260;29;20052;-71
2023/10/11 04:26:53;;;;;;;9.20;4.80;;;;;;;10.81;95.27;100715.22;4860903;29;20087;-71
2023/10/11 04:29:56;;;;;;;16.42;6.72;;;;;;;10.74;95.66;100720.84;4860801;29;20052;-72
2023/10/11 04:33:01;;;;;;;;;;;;;;;10.74;96.31;100716.44;4861387;29;20045;-66
2023/10/11 04:36:07;;;;;;;11.10;7.20;;;;;;;10.67;96.57;100725.53;4860845;29;20388;-71
2023/10/11 04:39:27;;;;;;;13.48;7.13;;;;;;;10.73;94.85;100722.59;4860497;29;20117;-72
2023/10/11 04:42:32;;;;;;;13.13;7.32;;;;;;;10.73;94.11;100735.69;4860611;29;20419;-71
2023/10/11 04:45:45;;;;;;;13.40;6.85;;;;;;;10.70;94.95;100730.59;4860449;29;20044;-71
2023/10/11 04:48:48;;;;;;;;;;;;;;;10.72;94.47;100734.00;4861079;29;20048;-71
2023/10/11 04:52:33;;;;;;;12.65;5.35;;;;;;;10.71;94.20;100737.50;4860577;29;19945;-72
2023/10/11 04:55:37;;;;;;;7.45;4.75;;;;;;;10.70;93.56;100749.75;4859859;29;20052;-73
2023/10/11 05:04:51;;;;;;;6.75;3.90;;;;;;;10.45;94.15;100754.47;4859337;29;20048;-71
2023/10/11 05:08:05;;;;;;;7.20;3.97;;;;;;;10.54;93.95;100755.81;4859022;29;20566;-71
2023/10/11 05:11:18;;;;;;;11.52;4.78;;;;;;;10.56;93.61;100754.81;4860262;29;20093;-71
2023/10/11 05:14:31;;;;;;;7.40;4.03;;;;;;;10.51;93.77;100758.56;4859584;29;20064;-71
2023/10/11 05:17:38;;;;;;;9.15;3.70;;;;;;;10.51;93.97;100761.19;4859181;29;20109;-71
2023/10/11 05:30:29;;;;;;;8.20;4.10;;;;;;;10.51;93.11;100769.03;4860109;29;20418;-71
2023/10/11 05:33:57;;;;;;;12.20;7.03;;;;;;;10.53;93.29;100764.56;4859127;29;20052;-69
2023/10/11 05:54:11;;;;;;;6.82;3.60;;;;;;;10.14;93.36;100760.28;4819987;29;20062;-71
2023/10/11 05:57:15;;;;;;;5.50;3.35;;;;;;;10.15;93.72;100759.38;4819943;29;20090;-71
2023/10/11 06:00:25;;;;;;;5.60;3.08;;;;;;;10.22;93.30;100755.53;4858320;29;20070;-71
2023/10/11 06:03:29;;;;;;;5.25;3.17;;;;;;;10.24;93.53;100759.78;4858365;29;20056;-73
2023/10/11 06:06:38;;;;;;;;;;;;;;;10.15;94.27;100760.22;4859027;29;20515;-70
2023/10/11 06:09:52;;;;;;;12.20;5.20;;;;;;;10.12;94.38;100760.34;4858407;29;19923;-70
2023/10/11 06:12:58;;;;;;;5.85;3.45;;;;;;;10.18;93.83;100769.69;4858727;29;20169;-70
2023/10/11 06:16:03;;;;;;;9.30;4.50;;;;;;;10.27;93.30;100758.81;4858261;29;20149;-70
2023/10/11 06:19:18;;;;;;;8.18;3.60;;;;;;;10.24;93.41;100751.94;4858263;29;20121;-71
2023/10/11 06:22:28;;;;;;;7.53;3.85;;;;;;;10.27;93.29;100750.97;4858497;29;20083;-70
2023/10/11 06:25:50;;;;;;;7.93;3.80;;;;;;;10.31;92.83;100742.09;4858252;29;20080;-69
2023/10/11 06:29:02;;;;;;;7.22;3.65;;;;;;;10.39;92.35;100739.94;4858355;29;20173;-70
2023/10/11 06:32:11;;;;;;;13.80;5.03;;;;;;;10.31;92.62;100744.69;4858139;29;20149;-71
2023/10/11 06:35:23;;;;;;;19.65;15.02;;;;;;;10.34;93.00;100736.72;4858322;29;20106;-70
2023/10/11 06:38:30;;;;;;;9.98;6.15;;;;;;;10.41;93.81;100755.56;4858558;29;20057;-63
2023/10/11 06:41:37;;;;;;;9.32;4.22;;;;;;;10.42;93.90;100752.00;4858468;29;20051;-71
2023/10/11 06:44:41;;;;;;;9.82;4.30;;;;;;;10.42;94.66;100749.41;4858856;29;20149;-64
2023/10/11 06:47:49;;;;;;;7.47;4.18;;;;;;;10.27;95.99;100761.41;4862000;29;20514;-64
2023/10/11 06:50:52;;;;;;;8.55;3.88;;;;;;;10.00;97.54;100769.59;4862408;29;20426;-64
2023/10/11 06:53:57;;;;;;;9.90;4.22;;;;;;;10.19;98.02;100771.38;4861890;29;20113;-64
2023/10/11 06:57:01;;;;;;;10.38;5.68;;;;;;;10.28;97.78;100770.97;4861979;29;20114;-64
2023/10/11 07:00:20;;;;;;;7.80;4.50;;;;;;;10.44;97.19;100765.88;4861709;29;20478;-67
2023/10/11 07:03:26;;;;;;;12.18;4.50;;;;;;;10.39;97.73;100778.28;4862305;29;20072;-65
2023/10/11 07:06:30;;;;;;;9.15;3.70;;;;;;;10.34;98.00;100781.16;4861879;29;20109;-64
2023/10/11 07:09:39;;;;;;;9.60;4.45;;;;;;;10.58;97.80;100767.81;4860427;29;20055;-68
2023/10/11 07:12:42;;;;;;;12.48;4.22;;;;;;;10.59;97.09;100772.97;4860090;29;20052;-65
2023/10/11 07:15:47;;;;;;;7.40;3.97;;;;;;;10.43;97.66;100761.53;4841681;29;20053;-64
2023/10/11 07:18:56;;;;;;;10.48;3.97;;;;;;;10.39;98.37;100767.84;4842536;29;20053;-65
2023/10/11 07:22:02;;;;;;;9.05;3.38;;;;;;;10.63;97.96;100776.28;4842113;29;20056;-69
2023/10/11 07:28:36;;;;;;;6.57;3.90;;;;;;;10.94;96.89;100773.88;4842544;29;20122;-70
2023/10/11 07:31:48;;;;;;;12.50;4.32;;;;;;;11.07;96.22;100765.38;4842385;29;20131;-70
2023/10/11 07:34:54;;;;;;;8.43;4.53;;;;;;;11.16;96.49;100771.00;4842376;29;20078;-70
2023/10/11 07:38:00;;;;;;;9.40;4.80;;;;;;;11.30;97.21;100780.78;4842084;29;20052;-70
2023/10/11 07:41:17;;;;;;;13.35;7.70;;;;;;;11.25;98.49;100795.00;4842444;29;20048;-70
2023/10/11 07:44:20;;;;;;;9.38;5.70;;;;;;;11.44;98.13;100776.59;4842301;29;20109;-72
2023/10/11 07:47:25;;;;;;;;;;;;;;;11.61;97.66;100772.19;4842659;29;20074;-71
2023/10/11 07:50:29;;;;;;;9.07;5.05;;;;;;;11.70;99.19;100770.81;4842204;29;19923;-71
2023/10/11 07:53:32;;;;;;;11.88;5.75;;;;;;;11.71;99.65;100772.53;4841948;29;20052;-72
2023/10/11 07:56:35;;;;;;;11.40;5.30;;;;;;;11.79;100.00;100778.19;4841232;29;20129;-72
2023/10/11 07:59:39;;;;;;;;;;;;;;;11.88;100.00;100765.59;4842201;29;20525;-72
2023/10/11 08:03:02;;;;;;;11.40;5.00;;;;;;;12.00;100.00;100767.53;4841891;29;19927;-72
2023/10/11 08:06:09;;;;;;;11.00;5.50;;;;;;;12.15;100.00;100769.31;4841630;29;20056;-71
2023/10/11 08:09:21;;;;;;;17.50;6.78;;;;;;;12.25;100.00;100756.53;4841745;29;20049;-71
2023/10/11 08:12:24;;;;;;;13.75;6.03;;;;;;;12.34;100.00;100746.38;4842092;29;20073;-71
2023/10/11 08:15:28;;;;;;;10.63;5.40;;;;;;;12.41;100.00;100741.66;4859570;29;20095;-73
2023/10/11 08:18:32;;;;;;;9.25;5.55;;;;;;;12.29;100.00;100732.69;4859929;29;20048;-72
2023/10/11 08:21:35;;;;;;;10.55;5.22;;;;;;;12.42;100.00;100732.00;4859933;29;20052;-77
2023/10/11 08:25:30;;;;;;;10.48;5.30;;;;;;;12.59;100.00;100726.63;4860424;29;20053;-66
2023/10/11 08:28:35;;;;;;;7.60;4.65;;;;;;;12.83;100.00;100719.13;4860260;29;20584;-66
2023/10/11 08:31:39;;;;;;;10.75;4.63;;;;;;;13.05;100.00;100710.84;4858877;29;20055;-66
2023/10/11 08:34:46;;;;;;;9.95;3.95;;;;;;;13.25;100.00;100723.66;4859063;29;20072;-66
2023/10/11 08:37:52;;;;;;;10.13;4.07;;;;;;;13.38;100.00;100712.41;4858687;29;20415;-72
2023/10/11 08:40:58;;;;;;;9.30;4.93;;;;;;;13.51;100.00;100712.50;4859099;29;20474;-73
2023/10/11 08:44:08;;;;;;;7.80;4.32;;;;;;;13.52;100.00;100720.25;4858698;29;20426;-72
2023/10/11 08:47:22;;;;;;;10.70;4.88;;;;;;;13.55;100.00;100714.81;4859517;29;20056;-72
2023/10/11 08:50:31;;;;;;;9.70;4.50;;;;;;;13.60;100.00;100704.06;4859314;29;20051;-72
2023/10/11 08:53:35;;;;;;;10.95;5.55;;;;;;;13.69;100.00;100711.38;4859433;29;20235;-72
2023/10/11 08:56:39;;;;;;;9.63;4.53;;;;;;;13.77;100.00;100709.09;4859463;29;20047;-72
2023/10/11 08:59:58;;;;;;;7.25;4.40;;;;;;;13.89;100.00;100697.81;4859128;29;20077;-72
2023/10/11 09:03:18;;;;;;;7.10;4.35;;;;;;;14.02;100.00;100687.34;4859162;29;20118;-71
2023/10/11 09:06:22;;;;;;;12.55;4.55;;;;;;;14.07;100.00;100682.66;4859094;29;20061;-73
2023/10/11 09:09:41;;;;;;;13.02;4.70;;;;;;;14.17;100.00;100681.13;4858892;29;20060;-72
2023/10/11 09:12:48;;;;;;;9.80;5.07;;;;;;;14.24;100.00;100675.47;4858982;29;20504;-73
2023/10/11 09:15:56;;;;;;;15.73;5.22;;;;;;;14.29;100.00;100673.34;4858894;29;20056;-72
2023/10/11 09:19:06;;;;;;;11.02;5.40;;;;;;;14.35;100.00;100671.16;4858932;29;20113;-72
2023/10/11 09:22:18;;;;;;;11.13;4.70;;;;;;;14.45;100.00;100663.50;4859220;29;20055;-69
2023/10/11 09:25:23;;;;;;;7.97;4.45;;;;;;;14.55;100.00;100679.56;4858915;29;20124;-71
2023/10/11 09:28:26;;;;;;;12.95;4.78;;;;;;;14.65;100.00;100670.13;4858808;29;20403;-71
2023/10/11 09:31:31;;;;;;;14.48;5.00;;;;;;;14.78;100.00;100667.50;4858543;29;20052;-70
2023/10/11 09:34:35;;;;;;;14.30;4.57;;;;;;;14.90;100.00;100674.59;4858036;29;20126;-70
2023/10/11 09:37:38;;;;;;;9.93;4.32;;;;;;;15.04;100.00;100668.38;4858330;29;20110;-71
2023/10/11 09:40:41;;;;;;;14.57;5.20;;;;;;;15.21;100.00;100667.19;4858717;29;20514;-71
2023/10/11 09:43:45;;;;;;;12.48;4.63;;;;;;;15.48;100.00;100670.53;4857636;29;20105;-71
2023/10/11 09:46:48;;;;;;;13.57;4.47;;;;;;;15.64;100.00;100662.41;4858653;29;20052;-71
2023/10/11 09:49:54;;;;;;;9.50;5.05;;;;;;;15.74;100.00;100673.16;4858901;29;20132;-71
2023/10/11 09:53:00;;;;;;;10.13;3.80;;;;;;;15.77;100.00;100672.94;4858847;29;20139;-71
2023/10/11 09:56:15;;;;;;;7.75;4.07;;;;;;;15.74;100.00;100667.88;4858610;29;20558;-71
2023/10/11 09:59:59;;;;;;;10.52;4.25;;;;;;;15.92;100.00;100670.97;4858668;29;20052;-71
2023/10/11 10:03:05;;;;;;;10.43;4.63;;;;;;;15.98;100.00;100662.63;4858818;29;20209;-71
2023/10/11 10:06:18;;;;;;;15.00;4.35;;;;;;;16.12;100.00;100667.75;4858627;29;20057;-71
2023/10/11 10:12:40;;;;;;;7.82;5.03;;;;;;;16.43;100.00;100660.19;4858383;29;20106;-71
2023/10/11 10:15:50;;;;;;;12.07;5.05;;;;;;;16.66;100.00;100669.88;4858412;29;20068;-72
2023/10/11 10:19:24;;;;;;;11.35;4.43;;;;;;;16.89;100.00;100664.69;4858291;29;20484;-72
2023/10/11 10:22:31;;;;;;;11.07;4.50;;;;;;;17.61;83.01;100661.69;4861783;29;20060;-72
2023/10/11 10:25:34;;;;;;;11.07;5.53;;;;;;;17.86;74.50;100656.13;4861961;29;20113;-73
2023/10/11 10:28:45;;;;;;;13.60;4.82;;;;;;;18.33;68.29;100647.94;4860857;29;20047;-71
2023/10/11 10:32:06;;;;;;;15.40;4.93;;;;;;;19.39;60.63;100638.94;4862018;29;20186;-72
2023/10/11 10:35:18;;;;;;;8.80;4.25;;;;;;;19.56;58.13;100640.97;4861610;29;20159;-71
2023/10/11 10:38:22;;;;;;;12.03;4.40;;;;;;;19.71;57.42;100636.13;4861825;29;20056;-76
2023/10/11 10:41:27;;;;;;;11.63;4.32;;;;;;;19.69;58.32;100638.94;4861813;29;20053;-75
2023/10/11 10:44:32;;;;;;;12.50;5.75;;;;;;;20.54;53.60;100634.81;4861541;29;20592;-72
2023/10/11 10:47:37;;;;;;;10.50;4.47;;;;;;;20.44;52.86;100631.28;4861581;29;20048;-71
2023/10/11 10:50:54;;;;;;;10.13;3.45;;;;;;;20.61;51.56;100633.28;4861559;29;20493;-70
2023/10/11 10:53:57;;;;;;;15.13;4.35;;;;;;;20.93;48.61;100633.88;4861525;29;20166;-71
2023/10/11 10:57:03;;;;;;;12.88;4.25;;;;;;;20.78;49.99;100630.88;4861465;29;20133;-70
2023/10/11 11:00:21;;;;;;;8.55;3.72;;;;;;;20.90;48.72;100629.72;4861615;29;20133;-72
2023/10/11 11:03:25;;;;;;;9.38;4.13;;;;;;;21.31;46.14;100616.94;4861707;29;20098;-72
2023/10/11 11:06:46;;;;;;;12.55;4.35;;;;;;;21.33;46.11;100622.97;4861638;29;20056;-72
2023/10/11 11:09:57;;;;;;;7.32;3.65;;;;;;;21.48;44.84;100607.38;4861474;29;20055;-72
2023/10/11 11:13:11;;;;;;;11.98;3.40;;;;;;;21.59;43.78;100605.34;4861380;29;20505;-71
2023/10/11 11:16:26;;;;;;;9.00;4.03;;;;;;;21.48;45.44;100597.56;4861371;29;20102;-71
2023/10/11 11:19:34;;;;;;;13.18;4.20;;;;;;;21.52;44.40;100596.28;4861252;29;20473;-75
2023/10/11 11:22:39;;;;;;;10.23;3.92;;;;;;;21.59;43.99;100599.19;4861584;29;20066;-75
2023/10/11 11:25:52;;;;;;;6.97;3.22;;;;;;;21.95;43.25;100594.75;4871036;29;20052;-74
2023/10/11 11:29:08;;;;;;;7.75;2.92;;;;;;;21.72;42.79;100604.13;4874532;29;20040;-73
2023/10/11 11:32:15;;;;;;;10.57;3.67;;;;;;;21.89;41.90;100600.66;4878805;29;20531;-74
2023/10/11 11:35:54;;;;;;;11.75;3.92;;;;;;;22.14;40.31;100587.56;4878905;29;20089;-74
2023/10/11 11:38:48;;;;;;;12.15;3.72;;;;;;;22.57;38.29;100577.94;4879131;29;20107;-73
2023/10/11 11:41:57;;;;;;;13.60;4.05;;;;;;;22.57;37.76;100575.28;4866499;29;20121;-73
2023/10/11 11:45:08;;;;;;;13.02;4.00;;;;;;;22.92;36.97;100584.97;4870622;29;20129;-73
2023/10/11 11:48:13;;;;;;;12.90;3.83;;;;;;;22.82;37.02;100569.09;4871984;29;20047;-73
2023/10/11 11:51:16;;;;;;;19.80;7.97;;;;;;;22.92;37.37;100575.13;4876972;29;20113;-74
2023/10/11 11:54:22;;;;;;;14.05;5.60;;;;;;;22.85;37.03;100571.44;4870306;29;20045;-76
2023/10/11 11:57:29;;;;;;;13.48;4.43;;;;;;;22.94;37.38;100575.84;4876136;29;20466;-75
2023/10/11 12:04:02;;;;;;;11.57;4.25;;;;;;;23.11;36.33;100562.59;4859864;29;20084;-75
2023/10/11 12:07:09;;;;;;;14.07;7.25;;;;;;;23.28;36.51;100577.66;4859726;29;20083;-64
2023/10/11 12:10:23;;;;;;;14.68;4.90;;;;;;;23.29;36.52;100567.81;4860869;29;20044;-67
2023/10/11 12:13:27;;;;;;;10.52;4.38;;;;;;;23.22;36.35;100562.28;4860296;29;20092;-71
2023/10/11 12:16:30;;;;;;;12.73;4.65;;;;;;;23.41;36.81;100548.66;4860729;29;20124;-71
2023/10/11 12:19:38;;;;;;;12.70;3.78;;;;;;;23.46;36.47;100542.03;4859991;29;20411;-70
2023/10/11 12:22:48;;;;;;;11.95;4.30;;;;;;;23.37;36.96;100544.66;4860700;29;20056;-71
2023/10/11 12:25:54;;;;;;;11.60;4.05;;;;;;;23.41;36.38;100538.00;4860581;29;20061;-70
2023/10/11 12:28:58;;;;;;;10.90;4.35;;;;;;;23.61;35.77;100532.34;4867503;29;20060;-70
2023/10/11 12:32:02;;;;;;;9.57;3.95;;;;;;;23.51;36.77;100537.00;4878543;29;20124;-71
2023/10/11 12:35:06;;;;;;;10.05;3.80;;;;;;;23.56;36.33;100537.38;4877344;29;20047;-71
2023/10/11 12:38:13;;;;;;;12.60;4.35;;;;;;;23.68;36.60;100522.72;4877319;29;20079;-71
2023/10/11 12:41:16;;;;;;;10.77;3.80;;;;;;;23.82;36.76;100532.75;4878015;29;20052;-69
2023/10/11 12:44:19;;;;;;;14.38;3.50;;;;;;;23.98;36.31;100517.75;4877708;29;20055;-70
2023/10/11 12:47:23;;;;;;;11.02;4.65;;;;;;;23.83;36.43;100523.72;4878740;29;20056;-71
2023/10/11 12:50:26;;;;;;;8.57;4.15;;;;;;;24.12;36.08;100515.25;4878584;29;20130;-71
2023/10/11 12:53:29;;;;;;;12.77;4.10;;;;;;;24.46;35.73;100513.38;4878643;29;20048;-71
2023/10/11 12:56:33;;;;;;;8.35;3.92;;;;;;;24.77;35.13;100522.28;4878882;29;20139;-71
2023/10/11 12:59:36;;;;;;;10.63;3.83;;;;;;;25.20;35.06;100517.44;4866870;29;20109;-71
2023/10/11 13:02:47;;;;;;;12.27;3.67;;;;;;;25.08;34.70;100518.84;4878437;29;20169;-71
2023/10/11 13:05:52;;;;;;;10.80;3.30;;;;;;;25.26;35.09;100516.75;4878424;29;20108;-71
2023/10/11 13:08:59;;;;;;;13.63;3.72;;;;;;;24.94;34.66;100506.19;4878333;29;20089;-71
2023/10/11 13:12:03;;;;;;;10.95;4.30;;;;;;;24.74;35.71;100525.31;4878475;29;20076;-71
2023/10/11 13:15:16;;;;;;;10.98;4.18;;;;;;;24.90;36.25;100512.91;4877898;29;20418;-71
2023/10/11 13:18:19;;;;;;;;;;;;;;;24.99;35.56;100510.00;4878393;29;20116;-71
2023/10/11 13:21:26;;;;;;;13.45;5.10;;;;;;;24.92;35.52;100498.34;4878131;29;19931;-71
2023/10/11 13:24:34;;;;;;;12.15;3.85;;;;;;;24.78;35.59;100509.75;4878094;29;20052;-71
2023/10/11 13:27:37;;;;;;;11.23;4.38;;;;;;;24.76;35.28;100504.59;4877803;29;20044;-71
2023/10/11 13:30:41;;;;;;;10.15;3.33;;;;;;;24.70;35.72;100491.91;4877928;29;20044;-70
2023/10/11 13:33:44;;;;;;;13.65;4.35;;;;;;;24.64;36.01;100495.28;4878154;29;20047;-70
2023/10/11 13:36:48;;;;;;;11.85;4.05;;;;;;;24.48;36.21;100496.16;4877756;29;20063;-70
2023/10/11 13:39:51;;;;;;;10.30;4.22;;;;;;;24.65;35.92;100501.44;4877844;29;20532;-70
2023/10/11 13:42:55;;;;;;;11.80;3.92;;;;;;;24.73;36.11;100494.25;4877739;29;20047;-70
2023/10/11 13:46:06;;;;;;;14.93;4.30;;;;;;;24.86;35.71;100490.19;4877587;29;20044;-70
2023/10/11 13:49:24;;;;;;;16.00;3.97;;;;;;;24.86;36.03;100485.66;4877575;29;20088;-70
2023/10/11 13:52:27;;;;;;;11.40;3.28;;;;;;;24.71;36.05;100482.88;4877734;29;20059;-70
2023/10/11 13:56:10;;;;;;;11.45;4.20;;;;;;;24.91;36.62;100480.63;4879895;29;20135;-71
2023/10/11 13:59:36;;;;;;;10.30;3.75;;;;;;;24.66;36.71;100490.56;4871929;29;20413;-70
2023/10/11 14:06:24;;;;;;;12.90;4.22;;;;;;;24.80;37.10;100463.13;4879858;29;20072;-71
2023/10/11 14:09:31;;;;;;;9.15;3.53;;;;;;;24.72;37.19;100465.81;4881219;29;20043;-70
2023/10/11 14:12:35;;;;;;;11.13;3.90;;;;;;;24.75;37.42;100465.47;4880976;29;20044;-72
2023/10/11 14:15:38;;;;;;;10.73;4.07;;;;;;;24.79;36.89;100456.13;4879760;29;20048;-69
2023/10/11 14:18:41;;;;;;;15.10;3.88;;;;;;;24.83;37.56;100436.03;4879566;29;20055;-70
2023/10/11 14:21:47;;;;;;;9.95;3.65;;;;;;;24.91;36.84;100437.00;4879649;29;20526;-70
2023/10/11 14:24:51;;;;;;;9.75;4.45;;;;;;;24.93;37.57;100429.63;4879423;29;20109;-71
2023/10/11 14:27:54;;;;;;;13.27;3.85;;;;;;;24.92;37.37;100430.63;4880390;29;20051;-72
2023/10/11 14:30:59;;;;;;;13.35;4.50;;;;;;;25.06;37.54;100427.22;4879623;29;20056;-72
2023/10/11 14:34:04;;;;;;;9.68;3.88;;;;;;;25.04;37.23;100426.53;4879569;29;20081;-77
2023/10/11 14:37:08;;;;;;;10.68;4.05;;;;;;;25.12;37.60;100439.06;4878704;29;20052;-74
2023/10/11 14:40:15;;;;;;;10.68;3.90;;;;;;;24.93;37.59;100418.94;4879481;29;20044;-73
2023/10/11 14:43:19;;;;;;;12.45;4.22;;;;;;;25.09;37.81;100410.81;4879327;29;20105;-71
2023/10/11 14:46:24;;;;;;;13.77;4.60;;;;;;;25.19;38.15;100418.63;4879422;29;20121;-76
2023/10/11 14:49:29;;;;;;;13.15;4.18;;;;;;;25.01;38.73;100427.72;4878603;29;20093;-76
2023/10/11 14:52:33;;;;;;;21.85;11.98;;;;;;;24.63;39.16;100425.94;4874431;29;20096;-76
2023/10/11 14:55:37;;;;;;;18.85;4.18;;;;;;;24.32;40.04;100426.69;4867412;29;20537;-76
2023/10/11 14:58:42;;;;;;;10.35;3.78;;;;;;;24.21;40.81;100419.88;4878902;29;20115;-72
2023/10/11 15:01:46;;;;;;;15.40;4.22;;;;;;;23.98;41.16;100418.94;4879146;29;20047;-73
2023/10/11 15:04:56;;;;;;;16.17;4.72;;;;;;;23.81;42.07;100405.59;4879165;29;20044;-72
2023/10/11 15:08:00;;;;;;;8.90;3.53;;;;;;;23.79;42.08;100410.28;4879068;29;20052;-73
2023/10/11 15:11:05;;;;;;;14.50;4.35;;;;;;;23.63;42.64;100415.59;4878971;29;20100;-73
2023/10/11 15:14:11;;;;;;;12.32;4.50;;;;;;;23.46;43.71;100413.94;4832219;29;1400740;-73
2023/10/11 15:17:15;;;;;;;10.32;4.30;;;;;;;23.48;44.21;100418.09;4880280;29;20044;-72
2023/10/11 15:20:22;;;;;;;11.15;4.32;;;;;;;23.23;45.64;100406.59;4879933;29;20088;-72
2023/10/11 15:23:37;;;;;;;12.93;4.18;;;;;;;23.17;45.47;100409.91;4881153;29;20112;-74
2023/10/11 15:26:45;;;;;;;12.55;5.20;;;;;;;23.07;46.29;100422.53;4879936;29;20052;-70
2023/10/11 15:29:49;;;;;;;10.18;4.15;;;;;;;23.03;45.87;100410.53;4868802;29;20085;-72
2023/10/11 15:32:57;;;;;;;17.27;4.07;;;;;;;22.89;46.32;100418.16;4869454;29;20080;-71
2023/10/11 15:36:01;;;;;;;14.68;4.43;;;;;;;22.69;47.83;100411.44;4868916;29;20052;-71
2023/10/11 15:39:07;;;;;;;13.80;4.63;;;;;;;22.58;47.96;100411.72;4870966;29;20120;-72
2023/10/11 15:42:13;;;;;;;11.18;4.15;;;;;;;22.43;49.19;100407.00;4868287;29;20565;-72
2023/10/11 15:45:17;;;;;;;15.90;4.40;;;;;;;22.31;49.43;100402.97;4867576;29;20056;-71
2023/10/11 15:48:22;;;;;;;8.82;3.67;;;;;;;22.12;50.53;100405.81;4870426;29;20056;-72
2023/10/11 15:51:26;;;;;;;8.63;4.63;;;;;;;22.13;50.30;100410.16;4870338;29;20044;-71
2023/10/11 15:54:31;;;;;;;14.52;5.18;;;;;;;22.15;51.51;100409.00;4869259;29;20097;-72
2023/10/11 15:57:36;;;;;;;10.50;3.53;;;;;;;21.78;55.63;100411.91;4869064;29;20141;-73
2023/10/11 16:00:41;;;;;;;11.73;4.20;;;;;;;21.51;58.05;100412.88;4869033;29;20048;-71
2023/10/11 16:03:50;;;;;;;13.90;4.70;;;;;;;20.97;61.48;100414.66;4868033;29;20052;-70
2023/10/11 16:06:54;;;;;;;8.75;3.95;;;;;;;20.86;63.17;100428.97;4869626;29;20064;-72
2023/10/11 16:09:57;;;;;;;12.35;4.72;;;;;;;20.69;62.74;100429.78;4869818;29;20107;-71